Time;durP1;ratioP1;P1;durP2;ratioP2;P2;SDS_P1;SDS_P2;PMS_P1;PMS_P2;Temp;Humidity;BMP_temperature;BMP_pressure;BME280_temperature;BME280_humidity;BME280_pressure;Samples;Min_cycle;Max_cycle;Signal;HPM_P1;HPM_P2
2023/07/03 00:00:45;;;;;;;11.60;9.30;;;21.70;62.50;;;;;;5002142;28;20040;-66
2023/07/03 00:03:14;;;;;;;11.57;8.18;;;21.70;62.40;;;;;;5005287;28;20508;-66
2023/07/03 00:05:47;;;;;;;11.35;9.13;;;21.70;62.50;;;;;;5006929;28;20041;-66
2023/07/03 00:08:17;;;;;;;10.30;8.18;;;21.70;62.40;;;;;;5006902;28;20037;-66
2023/07/03 00:10:43;;;;;;;10.95;8.82;;;21.70;62.40;;;;;;5008401;28;20072;-66
2023/07/03 00:13:09;;;;;;;9.80;8.10;;;21.70;62.40;;;;;;5006242;28;20033;-67
2023/07/03 00:15:35;;;;;;;10.73;7.78;;;21.70;62.50;;;;;;5008089;28;20049;-65
2023/07/03 00:18:00;;;;;;;9.55;7.70;;;21.70;62.50;;;;;;5011497;28;20111;-66
2023/07/03 00:20:27;;;;;;;9.70;7.88;;;21.70;62.50;;;;;;5008505;28;20371;-66
2023/07/03 00:22:54;;;;;;;12.00;8.73;;;21.70;62.50;;;;;;5008353;28;20091;-66
2023/07/03 00:25:19;;;;;;;10.27;8.30;;;21.70;62.50;;;;;;5008073;28;20042;-66
2023/07/03 00:27:46;;;;;;;10.82;8.55;;;21.70;62.40;;;;;;5007937;28;20034;-66
2023/07/03 00:30:12;;;;;;;11.15;8.65;;;21.70;63.10;;;;;;5008096;28;20645;-64
2023/07/03 00:32:38;;;;;;;11.13;8.55;;;21.70;62.50;;;;;;5008565;28;20057;-66
2023/07/03 00:35:04;;;;;;;10.70;7.78;;;21.70;62.40;;;;;;5008958;28;20054;-65
2023/07/03 00:37:30;;;;;;;10.73;7.68;;;21.70;62.50;;;;;;5007569;28;20037;-66
2023/07/03 00:39:55;;;;;;;11.82;8.77;;;21.70;62.50;;;;;;5004854;28;20095;-66
2023/07/03 00:42:25;;;;;;;13.45;8.88;;;21.70;62.40;;;;;;5007293;28;20124;-66
2023/07/03 00:44:51;;;;;;;11.50;8.48;;;21.70;62.40;;;;;;5004619;28;20033;-66
2023/07/03 00:47:16;;;;;;;10.75;8.00;;;21.70;62.50;;;;;;5005672;28;20497;-65
2023/07/03 00:49:42;;;;;;;8.85;7.68;;;21.70;62.50;;;;;;5006622;28;20512;-66
2023/07/03 00:52:10;;;;;;;10.75;8.45;;;21.70;62.40;;;;;;5006538;28;20660;-63
2023/07/03 00:54:36;;;;;;;10.88;7.97;;;21.70;62.40;;;;;;5006538;28;20121;-65
2023/07/03 00:57:01;;;;;;;13.07;8.07;;;21.70;62.40;;;;;;5009780;28;20101;-60
2023/07/03 00:59:27;;;;;;;11.63;8.80;;;21.70;62.30;;;;;;5004053;28;20049;-62
2023/07/03 01:01:54;;;;;;;11.35;8.85;;;21.70;62.40;;;;;;5007571;28;20038;-66
2023/07/03 01:04:37;;;;;;;11.50;8.82;;;21.70;62.40;;;;;;5003858;28;20058;-66
2023/07/03 01:07:13;;;;;;;11.52;8.82;;;21.70;62.40;;;;;;5006324;28;20540;-66
2023/07/03 01:09:45;;;;;;;10.80;7.65;;;21.70;62.40;;;;;;5005076;28;20034;-66
2023/07/03 01:12:11;;;;;;;13.23;8.93;;;21.70;62.50;;;;;;5005928;28;20057;-66
2023/07/03 01:14:39;;;;;;;9.52;7.80;;;21.70;62.40;;;;;;5008273;28;20114;-66
2023/07/03 01:17:09;;;;;;;11.70;8.18;;;21.70;62.40;;;;;;5010015;28;20393;-66
2023/07/03 01:19:37;;;;;;;11.13;9.20;;;21.70;62.40;;;;;;4998713;28;20035;-66
2023/07/03 01:22:38;;;;;;;10.90;8.15;;;21.70;62.50;;;;;;5003617;28;20018;-66
2023/07/03 01:25:11;;;;;;;12.10;8.73;;;21.70;62.40;;;;;;5002976;28;20691;-65
2023/07/03 01:27:43;;;;;;;11.43;8.23;;;21.70;62.40;;;;;;5002275;28;20026;-66
2023/07/03 01:30:13;;;;;;;10.02;7.93;;;21.70;62.30;;;;;;5002443;28;20034;-67
2023/07/03 01:32:39;;;;;;;10.55;7.97;;;21.70;62.30;;;;;;5005070;28;20025;-67
2023/07/03 01:35:08;;;;;;;12.55;8.38;;;21.70;62.20;;;;;;5004373;28;20073;-65
2023/07/03 01:37:36;;;;;;;11.40;8.63;;;21.70;62.30;;;;;;5003176;28;20089;-65
2023/07/03 01:40:02;;;;;;;11.32;8.07;;;21.70;62.30;;;;;;5003330;28;20643;-61
2023/07/03 01:42:29;;;;;;;11.32;9.00;;;21.70;62.30;;;;;;5002507;28;20042;-66
2023/07/03 01:44:55;;;;;;;10.60;8.30;;;21.70;62.30;;;;;;5002891;28;20026;-63
2023/07/03 01:47:21;;;;;;;11.80;8.82;;;21.70;62.20;;;;;;5004173;28;20374;-66
2023/07/03 01:49:48;;;;;;;13.02;9.10;;;21.70;62.20;;;;;;5005895;28;20544;-66
2023/07/03 01:52:23;;;;;;;13.05;9.07;;;21.70;62.20;;;;;;5003866;28;20034;-65
2023/07/03 01:54:48;;;;;;;10.18;8.30;;;21.70;62.20;;;;;;5002292;28;20030;-62
2023/07/03 01:57:22;;;;;;;12.50;8.40;;;21.70;62.20;;;;;;5001721;28;20488;-66
2023/07/03 01:59:52;;;;;;;11.52;8.52;;;21.70;62.20;;;;;;5002751;28;20053;-66
2023/07/03 02:02:26;;;;;;;12.32;8.93;;;21.70;62.20;;;;;;5002666;28;20613;-66
2023/07/03 02:05:10;;;;;;;10.80;8.18;;;21.70;62.20;;;;;;5004956;28;20030;-66
2023/07/03 02:07:37;;;;;;;11.35;8.27;;;21.70;62.10;;;;;;5003780;28;20034;-66
2023/07/03 02:10:03;;;;;;;12.63;8.68;;;21.70;62.20;;;;;;5001397;28;20666;-66
2023/07/03 02:12:29;;;;;;;10.07;7.75;;;21.60;62.00;;;;;;5004551;28;20049;-66
2023/07/03 02:15:00;;;;;;;11.18;9.35;;;21.70;62.10;;;;;;5004927;28;20052;-61
2023/07/03 02:17:26;;;;;;;13.65;9.68;;;21.70;62.00;;;;;;5005351;28;20034;-65
2023/07/03 02:19:51;;;;;;;9.73;7.90;;;21.70;62.10;;;;;;5003710;28;20030;-65
2023/07/03 02:22:17;;;;;;;11.30;8.52;;;21.60;61.80;;;;;;5004563;28;20559;-65
2023/07/03 02:24:42;;;;;;;9.55;8.45;;;21.60;61.80;;;;;;5005800;28;20018;-65
2023/07/03 02:27:08;;;;;;;13.40;9.38;;;21.60;62.00;;;;;;5006203;28;20045;-61
2023/07/03 02:29:33;;;;;;;11.60;8.65;;;21.60;62.00;;;;;;5002681;28;20087;-66
2023/07/03 02:31:59;;;;;;;12.88;9.43;;;21.60;62.00;;;;;;5003522;28;20034;-65
2023/07/03 02:34:24;;;;;;;11.38;8.73;;;21.60;61.90;;;;;;5001040;28;20556;-66
2023/07/03 02:36:50;;;;;;;14.43;8.98;;;21.60;62.00;;;;;;5003720;28;20034;-66
2023/07/03 02:39:16;;;;;;;14.82;10.23;;;21.60;61.90;;;;;;5003297;28;20041;-65
2023/07/03 02:41:42;;;;;;;10.70;8.43;;;21.60;61.70;;;;;;5002538;28;20204;-66
2023/07/03 02:44:07;;;;;;;13.32;9.55;;;21.60;61.80;;;;;;5005022;28;20118;-66
2023/07/03 02:46:33;;;;;;;12.90;8.68;;;21.60;61.90;;;;;;5003222;28;20080;-66
2023/07/03 02:48:58;;;;;;;12.20;8.65;;;21.60;62.00;;;;;;5002698;28;20096;-65
2023/07/03 02:51:24;;;;;;;11.90;8.52;;;21.60;61.90;;;;;;5002883;28;20037;-66
2023/07/03 02:53:49;;;;;;;12.90;9.07;;;21.60;61.80;;;;;;5001569;28;20196;-66
2023/07/03 02:56:15;;;;;;;11.38;8.82;;;21.60;61.90;;;;;;4998610;28;20026;-66
2023/07/03 02:58:40;;;;;;;11.18;8.27;;;21.70;61.80;;;;;;5004010;28;20057;-65
2023/07/03 03:01:06;;;;;;;13.32;9.02;;;21.60;61.70;;;;;;5003233;28;20030;-65
2023/07/03 03:03:31;;;;;;;15.45;9.15;;;21.60;61.70;;;;;;5002665;28;20045;-66
2023/07/03 03:05:57;;;;;;;11.55;9.27;;;21.60;61.70;;;;;;5002055;28;20034;-66
2023/07/03 03:08:23;;;;;;;12.75;8.65;;;21.60;61.70;;;;;;5004136;28;20084;-66
2023/07/03 03:10:53;;;;;;;12.40;8.40;;;21.60;61.70;;;;;;5025744;28;20110;-66
2023/07/03 03:13:19;;;;;;;13.40;10.00;;;21.60;61.80;;;;;;5002923;28;20092;-65
2023/07/03 03:15:45;;;;;;;11.75;8.82;;;21.60;61.50;;;;;;5005427;28;20448;-66
2023/07/03 03:18:10;;;;;;;14.30;9.75;;;21.60;61.60;;;;;;5006294;28;20057;-66
2023/07/03 03:20:36;;;;;;;12.70;9.15;;;21.60;61.60;;;;;;5010020;28;20073;-68
2023/07/03 03:23:01;;;;;;;12.55;9.20;;;21.60;62.20;;;;;;5004673;28;20099;-67
2023/07/03 03:25:27;;;;;;;12.82;9.93;;;21.60;61.60;;;;;;5004376;28;20475;-64
2023/07/03 03:27:53;;;;;;;16.40;10.63;;;21.60;61.50;;;;;;5004275;28;20102;-65
2023/07/03 03:30:18;;;;;;;12.38;9.32;;;21.60;61.50;;;;;;5004191;28;20076;-65
2023/07/03 03:32:44;;;;;;;13.43;10.07;;;21.60;61.30;;;;;;4998906;28;20121;-66
2023/07/03 03:35:09;;;;;;;12.57;9.15;;;21.60;61.40;;;;;;5002293;28;20026;-66
2023/07/03 03:37:35;;;;;;;14.27;10.10;;;21.60;61.30;;;;;;4999905;28;20559;-65
2023/07/03 03:40:01;;;;;;;15.55;9.38;;;21.60;61.30;;;;;;5003618;28;20026;-63
2023/07/03 03:42:26;;;;;;;12.25;9.70;;;21.60;61.40;;;;;;5002664;28;20034;-62
2023/07/03 03:44:51;;;;;;;13.10;9.82;;;21.60;61.40;;;;;;5003296;28;20018;-65
2023/07/03 03:47:19;;;;;;;13.48;9.48;;;21.60;61.20;;;;;;5001168;28;20524;-64
2023/07/03 03:49:45;;;;;;;13.70;9.80;;;21.60;61.20;;;;;;5002976;28;20279;-66
2023/07/03 03:52:10;;;;;;;17.92;10.77;;;21.60;61.30;;;;;;5003558;28;20125;-66
2023/07/03 03:54:36;;;;;;;14.38;10.02;;;21.50;61.00;;;;;;5000088;28;20030;-66
2023/07/03 03:57:01;;;;;;;16.17;10.20;;;21.60;61.20;;;;;;4999225;28;20034;-66
2023/07/03 03:59:27;;;;;;;15.05;10.73;;;21.60;61.20;;;;;;4998172;28;20033;-66
2023/07/03 04:01:52;;;;;;;14.38;10.32;;;21.50;60.80;;;;;;5001940;28;20037;-66
2023/07/03 04:04:18;;;;;;;15.82;11.00;;;21.50;61.20;;;;;;4998550;28;20030;-66
2023/07/03 04:06:43;;;;;;;14.25;10.25;;;21.50;61.20;;;;;;4999705;28;20471;-66
2023/07/03 04:09:09;;;;;;;15.55;11.43;;;21.50;61.10;;;;;;5003905;28;20499;-66
2023/07/03 04:11:35;;;;;;;15.32;10.63;;;21.50;61.10;;;;;;5001786;28;20045;-65
2023/07/03 04:14:01;;;;;;;15.55;10.77;;;21.60;61.10;;;;;;5003291;28;20038;-66
2023/07/03 04:16:29;;;;;;;14.20;10.35;;;21.50;61.10;;;;;;5000512;28;20033;-66
2023/07/03 04:18:55;;;;;;;15.93;11.27;;;21.50;60.90;;;;;;5002621;28;20038;-66
2023/07/03 04:21:20;;;;;;;16.10;10.07;;;21.50;60.70;;;;;;5001989;28;20037;-66
2023/07/03 04:23:47;;;;;;;15.23;10.25;;;21.50;60.90;;;;;;5003072;28;20030;-60
2023/07/03 04:26:12;;;;;;;15.30;10.68;;;21.50;60.90;;;;;;5002683;28;20038;-65
2023/07/03 04:28:38;;;;;;;16.02;10.85;;;21.50;61.00;;;;;;5001078;28;20039;-66
2023/07/03 04:31:04;;;;;;;15.40;10.25;;;21.60;61.00;;;;;;5001659;28;20034;-65
2023/07/03 04:33:29;;;;;;;14.15;9.95;;;21.50;61.00;;;;;;5000615;28;22299;-65
2023/07/03 04:35:55;;;;;;;15.40;10.45;;;21.50;60.90;;;;;;5001213;28;20030;-65
2023/07/03 04:38:23;;;;;;;14.88;11.07;;;21.50;60.60;;;;;;5001275;28;20044;-65
2023/07/03 04:40:51;;;;;;;17.27;11.52;;;21.50;60.90;;;;;;5001803;28;20050;-66
2023/07/03 04:43:17;;;;;;;13.07;9.57;;;21.60;60.90;;;;;;4999526;28;20106;-61
2023/07/03 04:45:48;;;;;;;16.65;10.85;;;21.50;60.90;;;;;;5000297;28;20062;-66
2023/07/03 04:48:16;;;;;;;14.88;10.77;;;21.50;60.90;;;;;;5004613;28;20057;-59
2023/07/03 04:50:42;;;;;;;17.83;10.77;;;21.50;60.90;;;;;;5002989;28;20514;-66
2023/07/03 04:53:07;;;;;;;16.15;11.50;;;21.50;60.70;;;;;;5004187;28;20066;-65
2023/07/03 04:55:33;;;;;;;14.35;9.63;;;21.50;60.70;;;;;;5005123;28;20408;-65
2023/07/03 04:57:59;;;;;;;18.92;11.25;;;21.60;60.90;;;;;;5002378;28;20030;-66
2023/07/03 05:00:27;;;;;;;15.77;10.20;;;21.50;60.80;;;;;;5003612;28;20400;-66
2023/07/03 05:02:58;;;;;;;19.70;11.27;;;21.60;60.70;;;;;;5002877;28;20045;-66
2023/07/03 05:05:25;;;;;;;15.07;10.90;;;21.60;60.60;;;;;;5004906;28;20034;-65
2023/07/03 05:07:50;;;;;;;17.08;10.88;;;21.60;60.70;;;;;;5005175;28;20034;-61
2023/07/03 05:10:17;;;;;;;20.10;10.45;;;21.60;60.40;;;;;;5006601;28;20065;-64
2023/07/03 05:12:44;;;;;;;15.23;11.00;;;21.60;60.40;;;;;;5006834;28;20113;-60
2023/07/03 05:15:12;;;;;;;18.83;11.40;;;21.60;59.50;;;;;;5008338;28;20069;-63
2023/07/03 05:17:38;;;;;;;19.38;12.02;;;21.50;60.20;;;;;;5007863;28;20392;-66
2023/07/03 05:20:11;;;;;;;18.75;11.90;;;21.50;59.70;;;;;;5006965;28;20026;-66
2023/07/03 05:22:39;;;;;;;18.13;12.30;;;21.50;60.10;;;;;;5006581;28;20026;-66
2023/07/03 05:25:06;;;;;;;20.10;12.02;;;21.50;60.40;;;;;;5006366;28;20077;-63
2023/07/03 05:27:33;;;;;;;19.00;11.88;;;21.60;59.50;;;;;;5005014;28;20030;-66
2023/07/03 05:29:58;;;;;;;17.10;11.15;;;21.60;59.40;;;;;;5005784;28;20061;-66
2023/07/03 05:32:24;;;;;;;17.60;11.98;;;21.60;59.30;;;;;;5004390;28;20113;-64
2023/07/03 05:34:49;;;;;;;16.50;11.82;;;21.60;59.50;;;;;;5004592;28;20069;-65
2023/07/03 05:37:15;;;;;;;21.25;10.73;;;21.60;59.30;;;;;;5006349;28;20030;-66
2023/07/03 05:39:41;;;;;;;22.70;13.25;;;21.60;59.20;;;;;;5005798;28;20036;-67
2023/07/03 05:42:07;;;;;;;17.70;11.50;;;21.60;58.90;;;;;;5008695;28;20030;-65
2023/07/03 05:44:33;;;;;;;17.70;10.75;;;21.60;58.80;;;;;;5003608;28;20030;-65
2023/07/03 05:46:58;;;;;;;20.80;12.23;;;21.70;58.90;;;;;;5005317;28;20088;-69
2023/07/03 05:49:24;;;;;;;16.52;11.60;;;21.70;58.80;;;;;;5004269;28;20041;-65
2023/07/03 05:51:49;;;;;;;20.10;12.45;;;21.70;58.80;;;;;;5004480;28;20121;-64
2023/07/03 05:54:16;;;;;;;17.30;11.18;;;21.70;58.90;;;;;;5004595;28;20026;-64
2023/07/03 05:56:43;;;;;;;19.02;11.23;;;21.60;58.50;;;;;;5004060;28;20700;-63
2023/07/03 05:59:08;;;;;;;17.60;11.35;;;21.60;58.80;;;;;;5003920;28;20038;-63
2023/07/03 06:01:34;;;;;;;20.17;12.25;;;21.50;58.50;;;;;;4999258;28;20026;-64
2023/07/03 06:04:00;;;;;;;19.17;11.68;;;21.60;58.80;;;;;;5003314;28;20034;-64
2023/07/03 06:06:25;;;;;;;17.65;10.82;;;21.60;58.50;;;;;;5003392;28;20045;-64
2023/07/03 06:08:50;;;;;;;15.43;10.73;;;21.60;58.70;;;;;;5004570;28;20480;-64
2023/07/03 06:11:16;;;;;;;18.20;10.63;;;21.50;58.90;;;;;;5005116;28;20030;-63
2023/07/03 06:13:41;;;;;;;18.63;11.10;;;21.60;58.60;;;;;;5004190;28;20087;-64
2023/07/03 06:16:07;;;;;;;18.45;11.68;;;21.50;58.50;;;;;;5004724;28;20021;-63
2023/07/03 06:18:32;;;;;;;19.05;11.88;;;21.60;59.30;;;;;;5004138;28;20034;-65
2023/07/03 06:20:58;;;;;;;19.65;11.23;;;21.50;58.60;;;;;;5004539;28;20034;-64
2023/07/03 06:23:23;;;;;;;20.13;11.57;;;21.50;58.70;;;;;;5003610;28;20500;-64
2023/07/03 06:25:49;;;;;;;21.85;11.20;;;21.40;58.60;;;;;;5003387;28;20030;-69
2023/07/03 06:28:14;;;;;;;20.08;10.43;;;21.40;58.20;;;;;;5003483;28;20113;-65
2023/07/03 06:30:47;;;;;;;18.08;10.65;;;21.50;58.00;;;;;;5003020;28;20451;-64
2023/07/03 06:33:13;;;;;;;16.55;10.70;;;21.50;58.20;;;;;;5003704;28;20092;-64
2023/07/03 06:35:38;;;;;;;17.50;11.02;;;21.50;58.10;;;;;;5002714;28;20046;-64
2023/07/03 06:38:04;;;;;;;19.58;10.95;;;21.50;58.20;;;;;;5004256;28;20699;-64
2023/07/03 06:40:29;;;;;;;17.35;10.77;;;21.50;58.00;;;;;;5002901;28;20495;-64
2023/07/03 06:42:55;;;;;;;18.73;10.43;;;21.50;58.30;;;;;;5001464;28;20053;-64
2023/07/03 06:45:20;;;;;;;18.50;10.38;;;21.50;57.60;;;;;;5002027;28;20656;-65
2023/07/03 06:47:46;;;;;;;16.73;9.93;;;21.50;58.00;;;;;;5000807;28;20048;-63
2023/07/03 06:50:11;;;;;;;21.70;10.48;;;21.50;58.10;;;;;;5004031;28;20084;-65
2023/07/03 06:52:37;;;;;;;17.92;10.43;;;21.50;57.90;;;;;;5001438;28;20049;-67
2023/07/03 06:55:03;;;;;;;20.73;10.50;;;21.50;58.00;;;;;;5002848;28;20449;-66
2023/07/03 06:57:29;;;;;;;17.20;10.82;;;21.50;58.00;;;;;;5001377;28;20030;-66
2023/07/03 06:59:54;;;;;;;18.40;10.48;;;21.50;58.20;;;;;;5000816;28;20053;-66
2023/07/03 07:02:20;;;;;;;22.17;11.48;;;21.50;58.10;;;;;;5002180;28;20026;-66
2023/07/03 07:04:45;;;;;;;21.08;10.90;;;21.50;58.10;;;;;;5001938;28;20491;-66
2023/07/03 07:07:11;;;;;;;19.42;10.50;;;21.50;58.10;;;;;;5003831;28;20057;-65
2023/07/03 07:09:36;;;;;;;16.77;10.35;;;21.50;58.00;;;;;;5001989;28;21701;-66
2023/07/03 07:12:02;;;;;;;16.13;10.13;;;21.40;57.90;;;;;;5002989;28;20028;-66
2023/07/03 07:14:27;;;;;;;18.00;10.10;;;21.40;57.70;;;;;;5001303;28;20084;-63
2023/07/03 07:16:53;;;;;;;21.38;10.88;;;21.50;58.00;;;;;;5012279;28;20029;-66
2023/07/03 07:19:18;;;;;;;17.60;9.82;;;21.50;58.10;;;;;;5015314;28;20045;-65
2023/07/03 07:21:44;;;;;;;17.17;10.43;;;21.50;58.00;;;;;;5002904;28;20022;-66
2023/07/03 07:24:18;;;;;;;14.05;9.40;;;21.50;57.90;;;;;;5002868;28;20018;-65
2023/07/03 07:26:44;;;;;;;16.38;8.88;;;21.40;58.30;;;;;;4991528;28;20089;-66
2023/07/03 07:29:10;;;;;;;16.77;8.68;;;21.50;57.60;;;;;;5000186;28;20033;-65
2023/07/03 07:31:37;;;;;;;16.20;9.13;;;21.40;57.50;;;;;;5000639;28;20029;-66
2023/07/03 07:34:04;;;;;;;14.77;9.75;;;21.50;58.10;;;;;;5001633;28;20026;-65
2023/07/03 07:36:30;;;;;;;13.20;8.93;;;21.40;57.70;;;;;;5001848;28;20053;-66
2023/07/03 07:38:55;;;;;;;15.23;8.40;;;21.40;57.20;;;;;;5002426;28;20096;-66
2023/07/03 07:41:21;;;;;;;12.68;8.20;;;21.40;57.30;;;;;;5001644;28;20026;-65
2023/07/03 07:43:48;;;;;;;14.23;8.13;;;21.40;57.60;;;;;;5001688;28;20049;-68
2023/07/03 07:46:14;;;;;;;13.02;8.32;;;21.40;58.20;;;;;;5000699;28;20401;-66
2023/07/03 07:48:40;;;;;;;12.15;7.70;;;21.50;58.00;;;;;;5002667;28;21704;-66
2023/07/03 07:51:10;;;;;;;16.17;8.48;;;21.50;58.40;;;;;;5002294;28;20033;-66
2023/07/03 07:53:36;;;;;;;16.88;8.73;;;21.50;57.80;;;;;;4996506;28;20036;-66
2023/07/03 07:56:03;;;;;;;11.60;8.07;;;21.50;57.50;;;;;;5020740;28;20087;-65
2023/07/03 07:58:29;;;;;;;15.73;8.85;;;21.50;57.80;;;;;;5004827;28;20457;-65
2023/07/03 08:00:56;;;;;;;14.13;7.30;;;21.50;58.10;;;;;;5002253;28;20113;-65
2023/07/03 08:03:21;;;;;;;14.60;8.23;;;21.50;58.00;;;;;;5001969;28;20049;-64
2023/07/03 08:05:47;;;;;;;15.00;8.18;;;21.50;58.20;;;;;;5002264;28;20501;-66
2023/07/03 08:08:12;;;;;;;16.67;8.05;;;21.50;58.00;;;;;;5002498;28;20057;-66
2023/07/03 08:10:38;;;;;;;13.23;7.78;;;21.50;57.80;;;;;;5001047;28;20092;-65
2023/07/03 08:13:03;;;;;;;15.15;8.30;;;21.50;58.10;;;;;;5001170;28;20038;-66
2023/07/03 08:15:29;;;;;;;13.93;7.80;;;21.40;58.00;;;;;;5002700;28;20038;-65
2023/07/03 08:17:54;;;;;;;13.73;7.97;;;21.40;58.10;;;;;;5004346;28;20065;-66
2023/07/03 08:20:21;;;;;;;12.38;7.68;;;21.40;57.60;;;;;;4999283;28;20389;-65
2023/07/03 08:22:46;;;;;;;14.75;8.15;;;21.40;57.40;;;;;;5004146;28;20049;-66
2023/07/03 08:25:12;;;;;;;13.98;7.07;;;21.40;57.40;;;;;;5008099;28;20046;-66
2023/07/03 08:27:37;;;;;;;12.20;6.60;;;21.40;57.60;;;;;;5005260;28;20026;-65
2023/07/03 08:30:04;;;;;;;19.85;8.13;;;21.40;57.30;;;;;;5005927;28;20030;-65
2023/07/03 08:32:29;;;;;;;12.15;7.30;;;21.40;55.20;;;;;;5005559;28;20084;-65
2023/07/03 08:34:55;;;;;;;12.23;7.53;;;21.30;57.10;;;;;;5006363;28;20034;-65
2023/07/03 08:37:20;;;;;;;12.18;7.43;;;21.40;57.50;;;;;;5005786;28;20029;-65
2023/07/03 08:39:46;;;;;;;11.63;6.50;;;21.40;57.40;;;;;;5005626;28;20304;-66
2023/07/03 08:42:15;;;;;;;15.68;7.22;;;21.40;57.60;;;;;;5005935;28;20030;-66
2023/07/03 08:44:40;;;;;;;11.63;7.20;;;21.40;57.70;;;;;;5004499;28;20037;-65
2023/07/03 08:47:09;;;;;;;12.45;7.57;;;21.40;57.60;;;;;;5005423;28;20041;-66
2023/07/03 08:49:36;;;;;;;11.15;6.00;;;21.40;57.50;;;;;;5005529;28;20353;-66
2023/07/03 08:52:03;;;;;;;11.38;7.38;;;21.40;58.10;;;;;;5005807;28;20211;-66
2023/07/03 08:54:34;;;;;;;10.88;6.30;;;21.40;57.80;;;;;;5003281;28;20053;-65
2023/07/03 08:57:02;;;;;;;12.45;6.75;;;21.40;57.70;;;;;;5004154;28;20041;-66
2023/07/03 08:59:27;;;;;;;13.30;6.70;;;21.40;57.40;;;;;;5004614;28;20484;-63
2023/07/03 09:02:00;;;;;;;13.60;6.80;;;21.40;57.50;;;;;;5005488;28;20033;-66
2023/07/03 09:04:47;;;;;;;11.80;6.53;;;21.40;57.80;;;;;;5005304;28;20134;-66
2023/07/03 09:07:42;;;;;;;12.60;6.32;;;21.40;58.00;;;;;;5004819;28;20037;-66
2023/07/03 09:10:32;;;;;;;9.55;5.75;;;21.40;58.10;;;;;;5003226;28;20022;-66
2023/07/03 09:13:15;;;;;;;9.85;6.13;;;21.40;58.20;;;;;;5004663;28;20037;-70
2023/07/03 09:15:47;;;;;;;8.40;6.05;;;21.40;57.60;;;;;;5004194;28;20037;-66
2023/07/03 09:18:17;;;;;;;13.35;6.28;;;21.40;57.20;;;;;;4994112;28;20589;-65
2023/07/03 09:20:43;;;;;;;10.32;6.57;;;21.40;56.90;;;;;;5005005;28;20633;-66
2023/07/03 09:23:15;;;;;;;14.00;7.10;;;21.40;57.80;;;;;;5002690;28;20394;-66
2023/07/03 09:25:46;;;;;;;10.95;6.25;;;21.40;57.70;;;;;;4999933;28;20030;-66
2023/07/03 09:28:12;;;;;;;13.82;6.32;;;21.40;57.90;;;;;;5000834;28;20265;-66
2023/07/03 09:30:38;;;;;;;13.15;6.55;;;21.40;58.10;;;;;;5004168;28;20053;-66
2023/07/03 09:33:06;;;;;;;11.32;6.25;;;21.40;58.20;;;;;;5004510;28;20090;-64
2023/07/03 09:35:50;;;;;;;13.38;6.20;;;21.40;58.30;;;;;;5002598;28;20049;-66
2023/07/03 09:38:21;;;;;;;15.10;6.50;;;21.40;58.20;;;;;;5000876;28;20037;-66
2023/07/03 09:40:49;;;;;;;14.50;5.85;;;21.40;57.20;;;;;;5004090;28;20038;-66
2023/07/03 09:43:23;;;;;;;14.85;6.30;;;21.30;57.00;;;;;;5004939;28;20026;-66
2023/07/03 09:45:51;;;;;;;15.25;6.22;;;21.30;57.30;;;;;;5004005;28;20969;-66
2023/07/03 09:48:23;;;;;;;9.32;5.88;;;21.40;58.00;;;;;;5002877;28;20064;-66
2023/07/03 09:50:49;;;;;;;13.93;5.78;;;21.40;58.10;;;;;;5004047;28;20040;-65
2023/07/03 09:53:18;;;;;;;9.88;6.10;;;21.40;58.30;;;;;;5002177;28;20030;-67
2023/07/03 09:55:44;;;;;;;13.27;5.90;;;21.40;58.30;;;;;;5003519;28;20163;-66
2023/07/03 09:58:13;;;;;;;10.32;5.85;;;21.40;58.40;;;;;;5006059;28;20045;-65
2023/07/03 10:00:44;;;;;;;12.45;6.20;;;21.40;58.40;;;;;;5005100;28;20064;-66
2023/07/03 10:03:10;;;;;;;17.67;6.80;;;21.40;58.00;;;;;;5002179;28;20021;-65
2023/07/03 10:05:35;;;;;;;12.48;6.20;;;21.30;56.80;;;;;;5004195;28;20034;-65
2023/07/03 10:08:03;;;;;;;10.77;5.80;;;21.30;57.70;;;;;;5004790;28;20489;-66
2023/07/03 10:10:33;;;;;;;10.57;5.90;;;21.40;58.70;;;;;;5002676;28;20026;-66
2023/07/03 10:13:19;;;;;;;9.70;6.05;;;21.30;58.20;;;;;;5004880;28;20034;-65
2023/07/03 10:15:46;;;;;;;13.27;6.30;;;21.30;58.20;;;;;;5001312;28;20029;-66
2023/07/03 10:18:17;;;;;;;9.63;5.50;;;21.30;58.00;;;;;;5001285;28;20037;-66
2023/07/03 10:20:46;;;;;;;13.05;6.15;;;21.40;58.10;;;;;;4998466;28;20037;-65
2023/07/03 10:23:22;;;;;;;9.88;6.20;;;21.30;57.20;;;;;;5002273;28;20111;-66
2023/07/03 10:25:57;;;;;;;10.40;5.80;;;21.30;57.70;;;;;;5001425;28;20037;-65
2023/07/03 10:28:28;;;;;;;10.00;6.22;;;21.30;58.20;;;;;;5002896;28;20045;-66
2023/07/03 10:30:59;;;;;;;12.75;6.18;;;21.40;58.30;;;;;;5005005;28;20041;-66
2023/07/03 10:33:34;;;;;;;11.82;5.75;;;21.40;58.10;;;;;;5000920;28;20033;-62
2023/07/03 10:36:05;;;;;;;9.38;5.10;;;21.40;57.80;;;;;;5005123;28;20387;-66
2023/07/03 10:38:55;;;;;;;11.73;5.93;;;21.40;57.70;;;;;;5003970;28;20137;-66
2023/07/03 10:41:39;;;;;;;9.40;5.57;;;21.40;58.00;;;;;;5002331;28;20041;-66
2023/07/03 10:44:13;;;;;;;10.88;5.80;;;21.40;58.20;;;;;;5001421;28;20053;-66
2023/07/03 10:46:48;;;;;;;12.38;6.45;;;21.40;58.30;;;;;;5005286;28;20488;-66
2023/07/03 10:49:30;;;;;;;9.18;5.40;;;21.30;57.50;;;;;;5016010;28;20034;-65
2023/07/03 10:52:23;;;;;;;8.82;5.38;;;21.30;57.30;;;;;;4999892;28;20026;-65
2023/07/03 10:55:08;;;;;;;8.65;5.93;;;21.30;58.40;;;;;;5002587;28;20429;-64
2023/07/03 10:58:21;;;;;;;9.88;5.63;;;21.30;58.30;;;;;;4993631;28;20042;-64
2023/07/03 11:01:06;;;;;;;12.40;5.97;;;21.40;58.40;;;;;;4989934;28;20041;-66
2023/07/03 11:03:37;;;;;;;10.03;5.60;;;21.40;57.60;;;;;;5000092;28;20242;-65
2023/07/03 11:06:07;;;;;;;9.52;5.45;;;21.40;58.20;;;;;;5002177;28;20018;-66
2023/07/03 11:08:52;;;;;;;9.88;5.35;;;21.40;58.40;;;;;;4999951;28;20030;-65
2023/07/03 11:11:36;;;;;;;9.00;5.43;;;21.40;58.40;;;;;;5000272;28;20022;-66
2023/07/03 11:14:18;;;;;;;8.80;5.20;;;21.40;58.20;;;;;;5000712;28;20030;-66
2023/07/03 11:17:12;;;;;;;9.27;5.10;;;21.40;58.50;;;;;;4992974;28;21138;-66
2023/07/03 11:19:51;;;;;;;8.38;5.55;;;21.40;57.20;;;;;;4995764;28;20042;-66
2023/07/03 11:22:40;;;;;;;11.15;6.10;;;21.40;58.00;;;;;;4992867;28;20501;-66
2023/07/03 11:25:08;;;;;;;9.68;5.25;;;21.40;58.20;;;;;;5003627;28;20038;-63
2023/07/03 11:27:56;;;;;;;10.00;5.13;;;21.40;57.90;;;;;;5001460;28;20038;-66
2023/07/03 11:30:25;;;;;;;10.20;5.07;;;21.30;58.20;;;;;;5006707;28;20030;-65
2023/07/03 11:32:52;;;;;;;9.52;5.13;;;21.40;58.80;;;;;;5006941;28;20041;-66
2023/07/03 11:35:18;;;;;;;13.02;4.72;;;21.30;59.20;;;;;;5003514;28;20665;-66
2023/07/03 11:37:49;;;;;;;10.50;5.18;;;21.40;59.50;;;;;;5004319;28;20273;-66
2023/07/03 11:40:23;;;;;;;12.18;6.25;;;21.40;59.00;;;;;;5003129;28;20026;-65
2023/07/03 11:42:54;;;;;;;13.50;5.47;;;21.40;59.00;;;;;;5003445;28;20705;-65
2023/07/03 11:45:30;;;;;;;11.88;5.15;;;21.40;58.50;;;;;;4999586;28;20560;-66
2023/07/03 11:47:56;;;;;;;8.32;5.40;;;21.40;58.90;;;;;;4999420;28;20034;-66
2023/07/03 11:50:33;;;;;;;10.73;5.90;;;21.40;58.80;;;;;;5003871;28;20030;-66
2023/07/03 11:53:00;;;;;;;10.10;5.15;;;21.40;58.90;;;;;;5001660;28;20045;-65
2023/07/03 11:55:37;;;;;;;8.93;5.72;;;21.40;59.10;;;;;;5002541;28;20041;-66
2023/07/03 11:58:03;;;;;;;7.75;4.95;;;21.40;58.80;;;;;;5006785;28;20140;-65
2023/07/03 12:00:30;;;;;;;16.65;5.20;;;21.40;58.80;;;;;;5007334;28;20404;-65
2023/07/03 12:03:01;;;;;;;10.25;5.68;;;21.40;58.50;;;;;;5007988;28;20031;-65
2023/07/03 12:05:47;;;;;;;9.23;4.80;;;21.40;57.40;;;;;;5007289;28;20313;-62
2023/07/03 12:08:19;;;;;;;9.65;5.22;;;21.40;57.60;;;;;;5002924;28;20057;-65
2023/07/03 12:10:52;;;;;;;10.82;5.03;;;21.40;58.40;;;;;;5004611;28;20033;-66
2023/07/03 12:13:43;;;;;;;9.85;5.50;;;21.40;58.00;;;;;;5005040;28;20026;-66
2023/07/03 12:16:25;;;;;;;12.48;5.00;;;21.40;58.70;;;;;;5003095;28;20030;-65
2023/07/03 12:19:06;;;;;;;7.10;4.55;;;21.40;58.00;;;;;;5003933;28;20201;-65
2023/07/03 12:21:43;;;;;;;9.45;5.07;;;21.40;58.50;;;;;;5002395;28;20041;-66
2023/07/03 12:24:20;;;;;;;9.60;5.40;;;21.40;57.40;;;;;;5005434;28;20477;-65
2023/07/03 12:26:54;;;;;;;11.25;4.47;;;21.40;58.60;;;;;;5005619;28;20652;-65
2023/07/03 12:29:20;;;;;;;11.13;5.18;;;21.40;58.20;;;;;;5006427;28;20038;-66
2023/07/03 12:32:05;;;;;;;12.27;5.38;;;21.40;58.00;;;;;;5005778;28;20034;-65
2023/07/03 12:34:32;;;;;;;11.43;5.20;;;21.40;57.90;;;;;;5002017;28;20109;-65
2023/07/03 12:36:59;;;;;;;13.02;6.00;;;21.40;57.90;;;;;;5001756;28;20385;-66
2023/07/03 12:39:25;;;;;;;9.77;4.95;;;21.40;56.90;;;;;;5005604;28;20049;-64
2023/07/03 12:41:51;;;;;;;10.07;5.30;;;21.40;57.90;;;;;;5005055;28;20037;-66
2023/07/03 12:44:17;;;;;;;9.85;5.13;;;21.40;57.60;;;;;;5003963;28;20026;-66